Time;durP1;ratioP1;P1;durP2;ratioP2;P2;SDS_P1;SDS_P2;PMS_P1;PMS_P2;Temp;Humidity;BMP_temperature;BMP_pressure;BME280_temperature;BME280_humidity;BME280_pressure;Samples;Min_cycle;Max_cycle;Signal;HPM_P1;HPM_P2
2023/03/03 00:01:12;;;;;;;44.30;20.30;;;;;;;;;;5135905;27;20049;-75
2023/03/03 00:03:39;;;;;;;39.08;18.02;;;;;;;;;;5132706;27;20531;-75
2023/03/03 00:06:05;;;;;;;45.55;19.60;;;;;;;;;;5131802;27;20487;-75
2023/03/03 00:08:31;;;;;;;34.95;18.67;;;;;;;;;;5116373;28;20067;-75
2023/03/03 00:10:59;;;;;;;37.08;19.15;;;;;;;;;;5116680;28;20182;-75
2023/03/03 00:13:26;;;;;;;37.97;19.90;;;;;;;;;;5098067;28;20047;-75
2023/03/03 00:15:53;;;;;;;47.25;19.30;;;;;;;;;;5098299;28;20047;-75
2023/03/03 00:18:25;;;;;;;37.65;19.42;;;;;;;;;;5116403;28;20457;-75
2023/03/03 00:20:59;;;;;;;39.47;19.13;;;;;;;;;;5116587;28;20047;-75
2023/03/03 00:23:36;;;;;;;41.35;19.48;;;;;;;;;;5116290;28;20100;-74
2023/03/03 00:26:02;;;;;;;56.85;19.13;;;;;;;;;;5115875;28;20055;-75
2023/03/03 00:28:29;;;;;;;65.97;19.98;;;;;;;;;;5114375;28;20046;-74
2023/03/03 00:30:57;;;;;;;38.65;17.00;;;;;;;;;;5116114;28;20457;-75
2023/03/03 00:33:31;;;;;;;36.28;17.25;;;;;;;;;;5097675;28;20040;-75
2023/03/03 00:35:59;;;;;;;53.33;17.02;;;;;;;;;;5097741;28;20044;-75
2023/03/03 00:38:26;;;;;;;27.83;15.30;;;;;;;;;;5097514;28;20050;-75
2023/03/03 00:40:52;;;;;;;28.50;14.68;;;;;;;;;;5109533;27;20470;-75
2023/03/03 00:43:20;;;;;;;37.10;15.02;;;;;;;;;;5117750;27;20061;-75
2023/03/03 00:45:47;;;;;;;27.55;15.75;;;;;;;;;;5119638;27;20070;-75
2023/03/03 00:48:22;;;;;;;33.20;14.40;;;;;;;;;;5136377;27;20155;-75
2023/03/03 00:50:48;;;;;;;41.67;15.45;;;;;;;;;;5118180;27;20153;-75
2023/03/03 00:53:18;;;;;;;37.78;14.35;;;;;;;;;;5124948;27;20043;-75
2023/03/03 00:55:45;;;;;;;26.55;13.77;;;;;;;;;;5153040;27;20133;-75
2023/03/03 00:58:11;;;;;;;79.30;15.85;;;;;;;;;;5155249;27;20539;-75
2023/03/03 01:00:38;;;;;;;32.30;14.07;;;;;;;;;;5120780;27;20070;-74
2023/03/03 01:03:05;;;;;;;29.83;13.65;;;;;;;;;;5147363;27;20102;-74
2023/03/03 01:05:31;;;;;;;24.25;12.32;;;;;;;;;;5117998;27;20125;-75
2023/03/03 01:07:57;;;;;;;57.65;13.50;;;;;;;;;;5115969;27;20043;-75
2023/03/03 01:10:24;;;;;;;31.92;11.98;;;;;;;;;;5116196;27;20055;-74
2023/03/03 01:12:50;;;;;;;19.42;12.05;;;;;;;;;;5135403;27;20085;-75
2023/03/03 01:15:16;;;;;;;18.15;10.52;;;;;;;;;;5135777;27;20042;-74
2023/03/03 01:17:42;;;;;;;17.13;11.75;;;;;;;;;;5115855;27;20118;-75
2023/03/03 01:20:09;;;;;;;17.27;11.75;;;;;;;;;;5102832;27;20047;-75
2023/03/03 01:22:36;;;;;;;21.15;12.32;;;;;;;;;;5135686;27;20122;-75
2023/03/03 01:25:05;;;;;;;19.38;11.70;;;;;;;;;;5117187;27;20050;-74
2023/03/03 01:27:31;;;;;;;43.38;13.45;;;;;;;;;;5135601;27;20054;-74
2023/03/03 01:30:00;;;;;;;22.52;12.45;;;;;;;;;;5135882;27;20072;-74
2023/03/03 01:32:26;;;;;;;17.77;11.95;;;;;;;;;;5117420;27;20166;-74
2023/03/03 01:34:53;;;;;;;20.27;11.88;;;;;;;;;;5100176;27;20046;-75
2023/03/03 01:37:19;;;;;;;17.58;9.98;;;;;;;;;;5135205;27;20046;-74
2023/03/03 01:39:52;;;;;;;49.90;14.38;;;;;;;;;;5117392;27;20043;-75
2023/03/03 01:42:18;;;;;;;44.00;13.82;;;;;;;;;;5116875;27;20043;-75
2023/03/03 01:44:44;;;;;;;61.38;13.90;;;;;;;;;;5117042;27;20051;-75
2023/03/03 01:47:26;;;;;;;71.22;13.68;;;;;;;;;;5135294;27;20075;-75
2023/03/03 01:49:55;;;;;;;92.40;14.45;;;;;;;;;;5135296;27;20039;-75
2023/03/03 01:52:28;;;;;;;50.63;14.10;;;;;;;;;;5134760;27;20050;-75
2023/03/03 01:54:56;;;;;;;94.97;14.93;;;;;;;;;;5138882;27;20070;-74
2023/03/03 01:57:34;;;;;;;44.90;12.40;;;;;;;;;;5117451;27;20118;-75
2023/03/03 02:00:02;;;;;;;77.97;12.52;;;;;;;;;;5135299;27;20128;-75
2023/03/03 02:02:28;;;;;;;106.18;13.23;;;;;;;;;;5134770;27;20088;-75
2023/03/03 02:04:54;;;;;;;114.85;13.57;;;;;;;;;;5132865;27;20146;-75
2023/03/03 02:07:21;;;;;;;108.57;12.00;;;;;;;;;;5108259;27;20054;-74
2023/03/03 02:09:56;;;;;;;74.35;12.10;;;;;;;;;;5134673;27;20446;-75
2023/03/03 02:12:26;;;;;;;94.07;13.93;;;;;;;;;;5134590;27;20114;-74
2023/03/03 02:14:52;;;;;;;42.42;11.13;;;;;;;;;;5133331;27;20039;-74
2023/03/03 02:17:18;;;;;;;83.53;12.88;;;;;;;;;;5133209;27;20116;-75
2023/03/03 02:19:56;;;;;;;123.60;12.90;;;;;;;;;;5133603;27;20046;-75
2023/03/03 02:22:26;;;;;;;62.33;10.90;;;;;;;;;;5127076;27;20375;-75
2023/03/03 02:24:55;;;;;;;46.15;9.82;;;;;;;;;;5150565;27;20041;-75
2023/03/03 02:27:21;;;;;;;34.45;9.15;;;;;;;;;;5116452;27;20074;-74
2023/03/03 02:29:47;;;;;;;41.42;8.40;;;;;;;;;;5135964;27;20099;-74
2023/03/03 02:32:13;;;;;;;25.85;8.18;;;;;;;;;;5098824;27;20039;-75
2023/03/03 02:34:49;;;;;;;19.48;7.50;;;;;;;;;;5132461;27;20487;-74
2023/03/03 02:37:16;;;;;;;42.17;9.23;;;;;;;;;;5133816;27;20038;-75
2023/03/03 02:39:43;;;;;;;30.38;8.48;;;;;;;;;;5151121;27;20039;-74
2023/03/03 02:42:20;;;;;;;29.60;8.60;;;;;;;;;;5140958;27;20151;-74
2023/03/03 02:44:47;;;;;;;35.33;8.98;;;;;;;;;;5124112;27;20043;-74
2023/03/03 02:47:13;;;;;;;22.80;9.18;;;;;;;;;;5141434;27;20038;-75
2023/03/03 02:49:39;;;;;;;27.05;9.75;;;;;;;;;;5136373;27;20038;-75
2023/03/03 02:52:08;;;;;;;22.80;10.13;;;;;;;;;;5121931;27;20107;-74
2023/03/03 02:54:35;;;;;;;35.92;10.95;;;;;;;;;;5118364;27;20043;-75
2023/03/03 02:57:01;;;;;;;18.48;10.15;;;;;;;;;;5115350;27;20054;-74
2023/03/03 02:59:27;;;;;;;25.60;10.48;;;;;;;;;;5149737;27;20164;-75
2023/03/03 03:01:53;;;;;;;26.70;10.32;;;;;;;;;;5116062;27;20043;-75
2023/03/03 03:04:24;;;;;;;29.52;9.70;;;;;;;;;;5133577;27;20042;-75
2023/03/03 03:06:50;;;;;;;34.63;10.80;;;;;;;;;;5117913;27;20061;-74
2023/03/03 03:09:17;;;;;;;25.48;10.20;;;;;;;;;;5135813;27;20066;-75
2023/03/03 03:11:43;;;;;;;27.98;10.32;;;;;;;;;;5134393;27;20054;-75
2023/03/03 03:14:10;;;;;;;34.40;10.02;;;;;;;;;;5135740;27;20078;-74
2023/03/03 03:16:37;;;;;;;30.80;9.30;;;;;;;;;;5135475;27;20802;-75
2023/03/03 03:19:03;;;;;;;21.77;9.45;;;;;;;;;;5134960;27;20379;-75
2023/03/03 03:21:30;;;;;;;38.05;10.35;;;;;;;;;;5115818;27;20051;-75
2023/03/03 03:23:56;;;;;;;13.30;9.40;;;;;;;;;;5115095;28;20061;-75
2023/03/03 03:26:22;;;;;;;11.30;9.18;;;;;;;;;;5134575;27;20505;-75
2023/03/03 03:28:49;;;;;;;11.73;8.88;;;;;;;;;;5154108;27;20103;-74
2023/03/03 03:31:16;;;;;;;10.35;8.77;;;;;;;;;;5153100;27;20424;-74
2023/03/03 03:33:42;;;;;;;13.20;9.18;;;;;;;;;;5140424;27;20122;-75
2023/03/03 03:36:08;;;;;;;17.48;9.13;;;;;;;;;;5142293;27;20043;-74
2023/03/03 03:38:38;;;;;;;16.42;8.68;;;;;;;;;;5121574;27;20501;-74
2023/03/03 03:41:05;;;;;;;12.23;8.77;;;;;;;;;;5099562;28;20039;-75
2023/03/03 03:43:31;;;;;;;11.77;8.38;;;;;;;;;;5133030;27;20046;-74
2023/03/03 03:45:57;;;;;;;9.70;8.40;;;;;;;;;;5133437;28;20057;-74
2023/03/03 03:48:23;;;;;;;10.55;8.57;;;;;;;;;;5151558;27;20043;-75
2023/03/03 03:50:50;;;;;;;12.05;9.20;;;;;;;;;;5135197;27;20127;-75
2023/03/03 03:53:16;;;;;;;12.48;9.50;;;;;;;;;;5117625;27;20039;-74
2023/03/03 03:55:42;;;;;;;13.23;9.93;;;;;;;;;;5117390;27;20388;-75
2023/03/03 03:58:09;;;;;;;11.57;9.70;;;;;;;;;;5123237;28;20399;-75
2023/03/03 04:00:35;;;;;;;11.82;9.70;;;;;;;;;;5115013;28;20055;-75
2023/03/03 04:03:01;;;;;;;11.13;8.93;;;;;;;;;;5126191;27;20043;-74
2023/03/03 04:05:27;;;;;;;12.27;9.52;;;;;;;;;;5139529;27;20483;-74
2023/03/03 04:07:53;;;;;;;11.43;9.02;;;;;;;;;;5131249;27;20088;-75
2023/03/03 04:10:19;;;;;;;11.80;9.45;;;;;;;;;;5114611;28;20051;-75
2023/03/03 04:12:45;;;;;;;10.80;8.57;;;;;;;;;;5122109;28;20055;-74
2023/03/03 04:15:12;;;;;;;12.80;9.20;;;;;;;;;;5112659;28;20046;-75
2023/03/03 04:17:38;;;;;;;11.15;9.13;;;;;;;;;;5112340;28;20049;-75
2023/03/03 04:20:04;;;;;;;11.98;9.68;;;;;;;;;;5112416;28;20062;-75
2023/03/03 04:22:34;;;;;;;11.63;9.43;;;;;;;;;;5094744;28;20507;-75
2023/03/03 04:25:03;;;;;;;12.20;8.70;;;;;;;;;;5133127;28;20048;-75
2023/03/03 04:27:30;;;;;;;10.82;8.93;;;;;;;;;;5114037;28;20050;-74
2023/03/03 04:29:56;;;;;;;10.73;8.60;;;;;;;;;;5114626;28;20051;-75
2023/03/03 04:32:22;;;;;;;9.70;8.23;;;;;;;;;;5119315;27;20494;-75
2023/03/03 04:34:48;;;;;;;10.95;8.32;;;;;;;;;;5127058;28;20043;-74
2023/03/03 04:37:14;;;;;;;9.07;8.07;;;;;;;;;;5127847;27;20399;-75
2023/03/03 04:39:40;;;;;;;11.48;8.40;;;;;;;;;;5134779;27;20047;-75
2023/03/03 04:42:06;;;;;;;9.55;8.13;;;;;;;;;;5152389;27;20058;-75
2023/03/03 04:44:32;;;;;;;11.63;8.48;;;;;;;;;;5154368;27;20487;-74
2023/03/03 04:46:58;;;;;;;9.88;8.02;;;;;;;;;;5148931;27;20031;-74
2023/03/03 04:49:24;;;;;;;12.48;8.20;;;;;;;;;;5128951;27;20050;-74
2023/03/03 04:51:50;;;;;;;10.32;8.25;;;;;;;;;;5141898;27;20091;-74
2023/03/03 04:54:16;;;;;;;12.98;8.48;;;;;;;;;;5134823;27;20085;-75
2023/03/03 04:56:42;;;;;;;10.30;8.50;;;;;;;;;;5137698;27;20066;-74
2023/03/03 04:59:08;;;;;;;9.13;7.75;;;;;;;;;;5156431;27;20093;-75
2023/03/03 05:01:34;;;;;;;11.88;8.02;;;;;;;;;;5135604;27;20099;-75
2023/03/03 05:04:00;;;;;;;10.57;8.75;;;;;;;;;;5106224;27;20051;-75
2023/03/03 05:06:26;;;;;;;9.82;8.18;;;;;;;;;;5130961;27;20046;-74
2023/03/03 05:08:52;;;;;;;10.40;8.40;;;;;;;;;;5136233;27;20063;-75
2023/03/03 05:11:18;;;;;;;10.38;8.13;;;;;;;;;;5134396;27;20064;-74
2023/03/03 05:13:44;;;;;;;9.57;7.97;;;;;;;;;;5135753;27;20122;-75
2023/03/03 05:16:11;;;;;;;11.80;8.75;;;;;;;;;;5128356;27;20039;-74
2023/03/03 05:18:37;;;;;;;10.40;8.13;;;;;;;;;;5141453;27;20131;-75
2023/03/03 05:21:04;;;;;;;10.55;8.40;;;;;;;;;;5135576;27;20075;-74
2023/03/03 05:23:30;;;;;;;11.27;8.55;;;;;;;;;;5125491;27;20043;-75
2023/03/03 05:25:56;;;;;;;10.95;8.55;;;;;;;;;;5150938;27;20039;-74
2023/03/03 05:28:22;;;;;;;12.15;8.25;;;;;;;;;;5132660;27;20096;-74
2023/03/03 05:30:48;;;;;;;11.68;8.68;;;;;;;;;;5116137;27;20051;-74
2023/03/03 05:33:15;;;;;;;10.20;8.63;;;;;;;;;;5115095;27;20559;-74
2023/03/03 05:35:41;;;;;;;12.40;8.95;;;;;;;;;;5133632;27;20082;-74
2023/03/03 05:38:07;;;;;;;11.77;8.82;;;;;;;;;;5154028;27;20493;-75
2023/03/03 05:40:34;;;;;;;11.00;8.80;;;;;;;;;;5125186;27;20435;-75
2023/03/03 05:43:00;;;;;;;11.48;9.02;;;;;;;;;;5151361;27;20119;-74
2023/03/03 05:45:26;;;;;;;11.75;9.60;;;;;;;;;;5118042;27;20053;-74
2023/03/03 05:47:52;;;;;;;14.38;9.02;;;;;;;;;;5128066;27;20103;-75
2023/03/03 05:50:19;;;;;;;11.43;9.20;;;;;;;;;;5116710;27;20385;-74
2023/03/03 05:52:48;;;;;;;11.75;9.02;;;;;;;;;;5126699;27;20049;-74
2023/03/03 05:55:14;;;;;;;12.77;9.13;;;;;;;;;;5133379;27;20039;-74
2023/03/03 05:57:40;;;;;;;13.57;9.05;;;;;;;;;;5133017;27;20495;-74
2023/03/03 06:00:07;;;;;;;11.88;8.48;;;;;;;;;;5134045;27;20465;-74
2023/03/03 06:02:33;;;;;;;12.18;9.43;;;;;;;;;;5115404;27;20441;-74
2023/03/03 06:04:59;;;;;;;11.82;8.93;;;;;;;;;;5120727;27;20043;-74
2023/03/03 06:07:25;;;;;;;10.50;8.85;;;;;;;;;;5096101;28;20380;-74
2023/03/03 06:09:51;;;;;;;12.52;8.85;;;;;;;;;;5114115;28;20058;-74
2023/03/03 06:12:17;;;;;;;10.95;8.45;;;;;;;;;;5114148;28;20084;-74
2023/03/03 06:14:43;;;;;;;10.88;9.00;;;;;;;;;;5113175;28;20406;-74
2023/03/03 06:17:09;;;;;;;10.52;8.50;;;;;;;;;;5094384;28;20035;-75
2023/03/03 06:19:36;;;;;;;11.68;8.85;;;;;;;;;;5113916;28;20492;-74
2023/03/03 06:22:02;;;;;;;15.25;9.25;;;;;;;;;;5113643;28;20082;-74
2023/03/03 06:24:30;;;;;;;14.52;9.00;;;;;;;;;;5113969;28;20048;-74
2023/03/03 06:26:57;;;;;;;12.63;9.32;;;;;;;;;;5095406;28;20082;-74
2023/03/03 06:29:23;;;;;;;13.77;9.70;;;;;;;;;;5113472;28;20118;-74
2023/03/03 06:31:49;;;;;;;13.18;9.88;;;;;;;;;;5113222;27;20042;-78
2023/03/03 06:34:15;;;;;;;11.95;9.65;;;;;;;;;;5134491;27;20502;-79
2023/03/03 06:36:41;;;;;;;14.15;9.95;;;;;;;;;;5139667;27;20109;-78
2023/03/03 06:39:07;;;;;;;15.40;9.90;;;;;;;;;;5135633;27;20129;-79
2023/03/03 06:41:33;;;;;;;14.38;10.40;;;;;;;;;;5152999;27;20073;-78
2023/03/03 06:43:59;;;;;;;13.68;10.15;;;;;;;;;;5154905;27;20126;-78
2023/03/03 06:46:26;;;;;;;16.60;9.95;;;;;;;;;;5154784;27;20058;-79
2023/03/03 06:48:52;;;;;;;13.77;10.20;;;;;;;;;;5136434;27;20122;-79
2023/03/03 06:51:32;;;;;;;13.48;10.20;;;;;;;;;;5154279;27;20103;-79
2023/03/03 06:54:01;;;;;;;15.38;9.70;;;;;;;;;;5151281;27;20101;-79
2023/03/03 06:56:27;;;;;;;14.13;10.23;;;;;;;;;;5152740;27;20228;-79
2023/03/03 06:58:57;;;;;;;13.20;9.90;;;;;;;;;;5154880;27;20042;-79
2023/03/03 07:01:24;;;;;;;12.85;10.18;;;;;;;;;;5134604;27;20412;-79
2023/03/03 07:03:50;;;;;;;14.15;9.57;;;;;;;;;;5098642;27;20130;-79
2023/03/03 07:06:21;;;;;;;14.23;9.82;;;;;;;;;;5108715;28;20337;-78
2023/03/03 07:08:47;;;;;;;13.63;10.20;;;;;;;;;;5091154;28;20070;-79
2023/03/03 07:11:15;;;;;;;15.18;10.52;;;;;;;;;;5104310;28;20515;-79
2023/03/03 07:13:44;;;;;;;16.52;10.27;;;;;;;;;;5093817;28;20060;-79
2023/03/03 07:16:12;;;;;;;14.48;10.05;;;;;;;;;;5091670;28;20126;-79
2023/03/03 07:18:44;;;;;;;14.90;9.68;;;;;;;;;;5113660;27;20035;-79
2023/03/03 07:21:24;;;;;;;10.93;8.52;;;;;;;;;;5115050;27;20051;-79
2023/03/03 07:23:51;;;;;;;13.52;8.88;;;;;;;;;;5111436;28;20046;-79
2023/03/03 07:26:31;;;;;;;12.55;8.48;;;;;;;;;;5112938;28;20036;-79
2023/03/03 07:29:00;;;;;;;11.00;7.90;;;;;;;;;;5113006;28;20053;-79
2023/03/03 07:31:29;;;;;;;10.52;6.82;;;;;;;;;;5113005;28;20387;-80
2023/03/03 07:33:56;;;;;;;11.23;7.22;;;;;;;;;;5112765;28;20470;-80
2023/03/03 07:36:26;;;;;;;11.63;7.43;;;;;;;;;;5111823;28;20341;-79
2023/03/03 07:38:58;;;;;;;12.70;6.75;;;;;;;;;;5112864;28;20050;-79
2023/03/03 07:41:24;;;;;;;11.88;6.53;;;;;;;;;;5121151;28;20088;-79
2023/03/03 07:43:53;;;;;;;11.40;7.00;;;;;;;;;;5130035;28;20131;-79
2023/03/03 07:46:28;;;;;;;9.65;6.32;;;;;;;;;;5093208;28;20085;-79
2023/03/03 07:48:56;;;;;;;12.52;6.68;;;;;;;;;;5111776;28;20047;-79
2023/03/03 07:51:24;;;;;;;13.70;6.60;;;;;;;;;;5112515;28;20043;-79
2023/03/03 07:53:51;;;;;;;13.43;7.88;;;;;;;;;;5111533;28;20131;-79
2023/03/03 07:56:33;;;;;;;9.73;6.88;;;;;;;;;;5112499;28;20040;-79
2023/03/03 07:58:59;;;;;;;12.68;6.93;;;;;;;;;;5111121;28;20048;-79
2023/03/03 08:01:28;;;;;;;10.48;7.25;;;;;;;;;;5115404;28;20120;-80
2023/03/03 08:03:55;;;;;;;12.25;7.57;;;;;;;;;;5112518;28;20052;-79
2023/03/03 08:06:42;;;;;;;13.18;7.82;;;;;;;;;;5110437;28;20088;-79
2023/03/03 08:09:11;;;;;;;12.95;7.65;;;;;;;;;;5113244;28;20416;-80
2023/03/03 08:11:43;;;;;;;11.45;7.90;;;;;;;;;;5117539;28;20127;-80
2023/03/03 08:14:12;;;;;;;11.23;7.45;;;;;;;;;;5092297;28;20040;-79
2023/03/03 08:16:38;;;;;;;17.05;8.25;;;;;;;;;;5090300;28;20059;-79
2023/03/03 08:19:05;;;;;;;12.77;7.82;;;;;;;;;;5092628;28;20071;-79
2023/03/03 08:21:31;;;;;;;10.57;7.30;;;;;;;;;;5106887;27;20067;-80
2023/03/03 08:23:57;;;;;;;13.02;7.93;;;;;;;;;;5129547;27;20047;-80
2023/03/03 08:26:24;;;;;;;12.93;7.32;;;;;;;;;;5135138;27;20038;-80
2023/03/03 08:28:50;;;;;;;12.10;7.40;;;;;;;;;;5135198;27;20127;-80
2023/03/03 08:31:16;;;;;;;11.75;8.00;;;;;;;;;;5134795;27;20092;-82
2023/03/03 08:33:43;;;;;;;13.90;7.97;;;;;;;;;;5126443;27;20040;-80
2023/03/03 08:36:09;;;;;;;10.20;7.53;;;;;;;;;;5136840;27;20441;-81
2023/03/03 08:38:36;;;;;;;15.25;8.40;;;;;;;;;;5128076;27;20031;-81
2023/03/03 08:41:02;;;;;;;11.27;7.43;;;;;;;;;;5135217;27;20047;-81
2023/03/03 08:43:28;;;;;;;12.57;7.60;;;;;;;;;;5134887;27;20126;-81
2023/03/03 08:45:58;;;;;;;12.52;7.70;;;;;;;;;;5136123;27;20058;-81
2023/03/03 08:48:24;;;;;;;10.65;7.43;;;;;;;;;;5117996;27;20047;-80
2023/03/03 08:50:50;;;;;;;11.73;7.40;;;;;;;;;;5135370;27;20073;-80
2023/03/03 08:53:16;;;;;;;11.93;7.75;;;;;;;;;;5135660;27;20047;-79
2023/03/03 08:55:42;;;;;;;13.35;7.63;;;;;;;;;;5136412;27;20042;-80
2023/03/03 08:58:08;;;;;;;12.18;7.47;;;;;;;;;;5135578;27;20047;-80
2023/03/03 09:00:35;;;;;;;13.82;8.07;;;;;;;;;;5134446;27;20039;-79
2023/03/03 09:03:01;;;;;;;12.10;7.05;;;;;;;;;;5135715;27;20047;-79
2023/03/03 09:05:27;;;;;;;10.40;6.47;;;;;;;;;;5136006;27;20471;-79
2023/03/03 09:07:54;;;;;;;11.48;6.93;;;;;;;;;;5115164;27;20165;-80
2023/03/03 09:10:26;;;;;;;11.13;6.50;;;;;;;;;;5096737;28;20085;-79
2023/03/03 09:12:55;;;;;;;10.00;6.93;;;;;;;;;;5096937;28;20423;-80
2023/03/03 09:15:26;;;;;;;16.40;7.07;;;;;;;;;;5093884;28;20044;-80
2023/03/03 09:17:53;;;;;;;12.60;6.80;;;;;;;;;;5093459;28;20052;-79
2023/03/03 09:20:28;;;;;;;10.93;7.00;;;;;;;;;;5095117;28;20044;-80
2023/03/03 09:22:54;;;;;;;10.70;6.97;;;;;;;;;;5085413;27;20042;-80
2023/03/03 09:25:31;;;;;;;14.43;6.60;;;;;;;;;;5128679;27;20396;-80
2023/03/03 09:27:57;;;;;;;10.00;6.80;;;;;;;;;;5096502;28;20418;-81
2023/03/03 09:30:26;;;;;;;9.45;6.82;;;;;;;;;;5119609;27;20136;-79
2023/03/03 09:32:52;;;;;;;11.23;6.80;;;;;;;;;;5134813;27;20080;-79
2023/03/03 09:35:36;;;;;;;11.82;6.40;;;;;;;;;;5132643;27;20514;-80
2023/03/03 09:38:07;;;;;;;10.48;6.57;;;;;;;;;;5134942;27;20051;-79
2023/03/03 09:40:47;;;;;;;10.23;5.80;;;;;;;;;;5134378;27;20456;-80
2023/03/03 09:43:22;;;;;;;10.13;6.60;;;;;;;;;;5133557;27;20188;-79
2023/03/03 09:46:07;;;;;;;10.57;6.18;;;;;;;;;;5132116;27;20047;-79
2023/03/03 09:48:40;;;;;;;11.00;6.35;;;;;;;;;;5132654;27;20058;-80
2023/03/03 09:51:12;;;;;;;9.88;6.20;;;;;;;;;;5127406;27;20043;-80
2023/03/03 09:53:57;;;;;;;10.63;6.13;;;;;;;;;;5110234;27;20051;-80
2023/03/03 09:56:26;;;;;;;12.95;6.00;;;;;;;;;;5107475;27;20054;-80
2023/03/03 09:59:01;;;;;;;8.32;5.85;;;;;;;;;;5134835;27;20102;-80
2023/03/03 10:01:46;;;;;;;8.82;5.45;;;;;;;;;;5119703;27;20143;-80
2023/03/03 10:04:12;;;;;;;9.07;6.30;;;;;;;;;;5117208;27;20522;-80
2023/03/03 10:06:38;;;;;;;10.63;5.93;;;;;;;;;;5110511;27;20036;-80
2023/03/03 10:09:16;;;;;;;9.85;6.00;;;;;;;;;;5111465;28;20052;-80
2023/03/03 10:11:48;;;;;;;10.50;6.10;;;;;;;;;;5101423;27;20063;-80
2023/03/03 10:14:18;;;;;;;9.05;5.97;;;;;;;;;;5112981;28;20377;-80
2023/03/03 10:17:06;;;;;;;8.88;6.07;;;;;;;;;;5110240;27;20213;-80
2023/03/03 10:19:35;;;;;;;10.48;6.03;;;;;;;;;;5112426;28;20047;-80
2023/03/03 10:22:26;;;;;;;9.90;5.25;;;;;;;;;;5112365;28;20446;-80
2023/03/03 10:24:57;;;;;;;10.18;5.15;;;;;;;;;;5096145;27;20050;-80
2023/03/03 10:27:26;;;;;;;9.35;5.00;;;;;;;;;;5113742;28;20055;-80
2023/03/03 10:30:11;;;;;;;10.10;4.82;;;;;;;;;;5113770;28;20043;-80
2023/03/03 10:32:44;;;;;;;9.20;4.20;;;;;;;;;;5095629;28;20391;-80
2023/03/03 10:35:29;;;;;;;12.73;5.00;;;;;;;;;;5114113;28;20470;-80
2023/03/03 10:38:13;;;;;;;7.10;4.35;;;;;;;;;;5131450;27;20039;-80
2023/03/03 10:41:03;;;;;;;8.80;4.65;;;;;;;;;;5126914;27;20104;-80
2023/03/03 10:43:44;;;;;;;11.30;5.00;;;;;;;;;;5113027;28;20050;-80
2023/03/03 10:46:29;;;;;;;10.35;5.13;;;;;;;;;;5095334;28;20134;-80
2023/03/03 10:49:12;;;;;;;10.40;4.38;;;;;;;;;;5110920;28;20158;-79
2023/03/03 10:51:53;;;;;;;12.23;5.25;;;;;;;;;;5114369;27;20513;-80
2023/03/03 10:54:29;;;;;;;8.98;3.92;;;;;;;;;;5113060;28;20449;-80
2023/03/03 10:56:55;;;;;;;13.15;4.18;;;;;;;;;;5112156;27;20098;-80
2023/03/03 10:59:44;;;;;;;10.95;3.45;;;;;;;;;;5132480;27;20055;-80
2023/03/03 11:02:15;;;;;;;6.43;2.70;;;;;;;;;;5128984;27;20055;-80
2023/03/03 11:05:01;;;;;;;5.43;2.55;;;;;;;;;;5118100;27;20044;-80
2023/03/03 11:07:27;;;;;;;5.33;2.10;;;;;;;;;;5105172;28;20043;-76
2023/03/03 11:10:18;;;;;;;5.95;1.98;;;;;;;;;;5108049;28;20735;-76
2023/03/03 11:12:47;;;;;;;6.10;2.38;;;;;;;;;;5109657;28;20062;-76
2023/03/03 11:15:32;;;;;;;4.53;1.80;;;;;;;;;;5109923;28;20208;-76
2023/03/03 11:18:15;;;;;;;4.65;1.52;;;;;;;;;;5110026;28;20108;-76
2023/03/03 11:20:45;;;;;;;7.32;1.70;;;;;;;;;;5108245;28;20075;-76
2023/03/03 11:23:23;;;;;;;6.10;2.08;;;;;;;;;;5116165;27;20109;-75
2023/03/03 11:25:53;;;;;;;5.93;1.58;;;;;;;;;;5129894;27;20043;-76
2023/03/03 11:28:25;;;;;;;4.60;1.52;;;;;;;;;;5130141;27;20047;-75
2023/03/03 11:31:09;;;;;;;4.80;1.55;;;;;;;;;;5128987;27;20051;-75
2023/03/03 11:33:35;;;;;;;4.90;1.77;;;;;;;;;;5130090;27;20096;-75
2023/03/03 11:36:04;;;;;;;4.20;1.52;;;;;;;;;;5130330;27;20088;-76
2023/03/03 11:38:30;;;;;;;6.47;1.55;;;;;;;;;;5128302;27;20118;-75
2023/03/03 11:40:58;;;;;;;4.72;1.50;;;;;;;;;;5129086;27;20472;-75
2023/03/03 11:43:40;;;;;;;6.65;2.00;;;;;;;;;;5128338;28;20043;-75
2023/03/03 11:46:09;;;;;;;4.13;1.50;;;;;;;;;;5089428;28;20050;-75
2023/03/03 11:48:58;;;;;;;6.65;1.80;;;;;;;;;;5086571;28;20058;-75
2023/03/03 11:51:43;;;;;;;6.15;1.70;;;;;;;;;;5126723;28;20047;-79
2023/03/03 11:54:12;;;;;;;5.45;1.90;;;;;;;;;;5119753;27;20515;-80
2023/03/03 11:56:46;;;;;;;5.15;1.55;;;;;;;;;;5115240;28;20497;-80
2023/03/03 11:59:20;;;;;;;5.40;1.70;;;;;;;;;;5116577;28;20151;-80
2023/03/03 12:01:57;;;;;;;4.63;1.47;;;;;;;;;;5115159;28;20047;-81
2023/03/03 12:04:41;;;;;;;6.13;1.65;;;;;;;;;;5115267;28;20043;-80
2023/03/03 12:07:13;;;;;;;10.25;1.80;;;;;;;;;;5115205;28;20048;-80
2023/03/03 12:09:44;;;;;;;4.90;1.63;;;;;;;;;;5115211;28;20052;-81
2023/03/03 12:12:10;;;;;;;6.82;1.50;;;;;;;;;;5109275;28;20048;-80
2023/03/03 12:14:52;;;;;;;5.15;1.50;;;;;;;;;;5096071;28;20053;-81
2023/03/03 12:17:30;;;;;;;4.72;1.45;;;;;;;;;;5094708;28;20108;-81
2023/03/03 12:20:05;;;;;;;4.90;1.80;;;;;;;;;;5094665;28;20567;-81
2023/03/03 12:22:33;;;;;;;6.00;1.70;;;;;;;;;;5095733;28;20127;-80
2023/03/03 12:25:08;;;;;;;6.60;1.92;;;;;;;;;;5094658;28;20036;-80
2023/03/03 12:27:44;;;;;;;8.50;1.90;;;;;;;;;;5094476;28;20081;-80
2023/03/03 12:30:15;;;;;;;6.55;1.80;;;;;;;;;;5094080;28;20055;-80
2023/03/03 12:32:50;;;;;;;9.20;2.08;;;;;;;;;;5093482;28;20040;-81
2023/03/03 12:35:16;;;;;;;7.30;1.83;;;;;;;;;;5095670;28;20131;-80
2023/03/03 12:37:47;;;;;;;7.30;1.90;;;;;;;;;;5095387;28;20204;-80
2023/03/03 12:40:18;;;;;;;6.28;1.80;;;;;;;;;;5094721;28;20130;-81
2023/03/03 12:42:47;;;;;;;8.20;1.85;;;;;;;;;;5094242;28;20044;-81
2023/03/03 12:45:37;;;;;;;8.95;2.30;;;;;;;;;;5095550;28;20177;-81
2023/03/03 12:48:15;;;;;;;8.75;1.80;;;;;;;;;;5093883;28;20075;-80
2023/03/03 12:50:41;;;;;;;10.00;2.20;;;;;;;;;;5095937;28;20055;-81
2023/03/03 12:53:14;;;;;;;8.05;2.25;;;;;;;;;;5094029;28;20169;-80
2023/03/03 12:55:49;;;;;;;8.52;2.00;;;;;;;;;;5095449;28;20131;-80
2023/03/03 12:58:34;;;;;;;8.68;2.22;;;;;;;;;;5099636;28;20126;-80
2023/03/03 13:01:08;;;;;;;10.48;2.25;;;;;;;;;;5097187;28;20138;-80
2023/03/03 13:03:37;;;;;;;9.43;2.00;;;;;;;;;;5114953;28;20043;-80
2023/03/03 13:06:11;;;;;;;7.88;2.13;;;;;;;;;;5113884;28;20463;-80
2023/03/03 13:08:47;;;;;;;11.52;2.25;;;;;;;;;;5124254;27;20479;-80
2023/03/03 13:11:28;;;;;;;13.75;2.65;;;;;;;;;;5114243;28;20126;-80
2023/03/03 13:14:12;;;;;;;11.27;2.60;;;;;;;;;;5117141;27;20122;-81
2023/03/03 13:16:43;;;;;;;13.05;2.55;;;;;;;;;;5115406;27;20536;-81
2023/03/03 13:19:11;;;;;;;12.55;2.47;;;;;;;;;;5121088;27;20046;-81
2023/03/03 13:21:42;;;;;;;12.63;2.97;;;;;;;;;;5113898;28;20107;-78
2023/03/03 13:24:20;;;;;;;14.38;3.20;;;;;;;;;;5113370;28;20139;-80
2023/03/03 13:26:53;;;;;;;13.00;3.10;;;;;;;;;;5114777;28;20078;-81
2023/03/03 13:29:22;;;;;;;17.15;3.70;;;;;;;;;;5117831;27;20050;-81
2023/03/03 13:31:54;;;;;;;14.25;3.80;;;;;;;;;;5118371;27;20399;-81
2023/03/03 13:34:20;;;;;;;13.18;3.00;;;;;;;;;;5121987;27;20561;-81
2023/03/03 13:37:03;;;;;;;15.00;3.53;;;;;;;;;;5112189;27;20122;-82
2023/03/03 13:39:32;;;;;;;18.20;3.42;;;;;;;;;;5111969;28;20051;-81
2023/03/03 13:42:03;;;;;;;12.13;3.20;;;;;;;;;;5111552;28;20101;-81
2023/03/03 13:44:29;;;;;;;12.75;3.30;;;;;;;;;;5111515;28;20104;-81
2023/03/03 13:47:03;;;;;;;15.05;3.13;;;;;;;;;;5109728;28;20047;-81
2023/03/03 13:49:29;;;;;;;18.55;3.30;;;;;;;;;;5111298;28;20043;-81
2023/03/03 13:52:03;;;;;;;15.10;3.15;;;;;;;;;;5111330;27;20047;-81
2023/03/03 13:54:29;;;;;;;20.38;3.05;;;;;;;;;;5109996;28;20079;-81
2023/03/03 13:57:05;;;;;;;18.20;3.33;;;;;;;;;;5111147;28;20036;-81
2023/03/03 13:59:34;;;;;;;17.50;3.17;;;;;;;;;;5111593;27;20404;-81
2023/03/03 14:02:00;;;;;;;13.20;3.45;;;;;;;;;;5109983;28;20100;-82
2023/03/03 14:04:26;;;;;;;17.85;3.47;;;;;;;;;;5111346;28;20516;-81
2023/03/03 14:06:56;;;;;;;18.02;3.92;;;;;;;;;;5106489;27;20074;-80
2023/03/03 14:09:42;;;;;;;20.48;3.80;;;;;;;;;;5124132;27;20059;-80
2023/03/03 14:12:24;;;;;;;14.68;3.30;;;;;;;;;;5116541;27;20054;-80
2023/03/03 14:14:56;;;;;;;15.73;3.22;;;;;;;;;;5114114;28;20131;-80
2023/03/03 14:17:41;;;;;;;19.52;3.42;;;;;;;;;;5085475;28;20096;-81
2023/03/03 14:20:24;;;;;;;21.70;3.88;;;;;;;;;;5096096;28;20047;-80
2023/03/03 14:22:50;;;;;;;17.88;3.67;;;;;;;;;;5100441;27;20131;-80
2023/03/03 14:25:16;;;;;;;15.15;3.38;;;;;;;;;;5115767;27;20497;-80
2023/03/03 14:27:42;;;;;;;14.85;3.35;;;;;;;;;;5099014;27;20345;-81
2023/03/03 14:30:24;;;;;;;22.02;3.60;;;;;;;;;;5135069;27;20039;-80
2023/03/03 14:32:59;;;;;;;20.90;3.45;;;;;;;;;;5133899;27;20046;-80
2023/03/03 14:35:29;;;;;;;17.98;3.33;;;;;;;;;;5128256;27;20066;-80
2023/03/03 14:38:00;;;;;;;19.73;3.55;;;;;;;;;;5114992;27;20081;-80
2023/03/03 14:40:45;;;;;;;16.52;3.70;;;;;;;;;;5115876;27;20086;-80
2023/03/03 14:43:25;;;;;;;15.57;3.63;;;;;;;;;;5119178;27;20050;-80
2023/03/03 14:45:53;;;;;;;16.77;2.97;;;;;;;;;;5136652;27;20742;-80